createdAt,value
2019-04-26T00:00:10.892Z,0.93
2019-04-26T00:02:46.742Z,1.15
2019-04-26T00:05:16.745Z,1.35
2019-04-26T00:07:46.271Z,1.22
2019-04-26T00:10:19.633Z,1.47
2019-04-26T00:12:50.856Z,1.62
2019-04-26T00:15:27.548Z,1.47
2019-04-26T00:17:58.230Z,1.30
2019-04-26T00:20:27.260Z,1.52
2019-04-26T00:22:57.561Z,1.20
2019-04-26T00:25:26.311Z,1.32
2019-04-26T00:27:56.485Z,1.75
2019-04-26T00:33:00.862Z,1.40
2019-04-26T00:35:29.645Z,1.50
2019-04-26T00:37:58.347Z,1.30
2019-04-26T00:40:27.123Z,1.40
2019-04-26T00:42:57.648Z,1.40
2019-04-26T00:45:29.529Z,1.40
2019-04-26T00:47:59.949Z,1.40
2019-04-26T00:50:29.908Z,1.50
2019-04-26T00:53:00.214Z,1.50
2019-04-26T00:55:30.515Z,1.60
2019-04-26T00:57:59.661Z,1.40
2019-04-26T01:00:28.477Z,1.60
2019-04-26T01:02:57.914Z,1.87
2019-04-26T01:05:29.069Z,1.95
2019-04-26T01:07:58.073Z,1.60
2019-04-26T01:10:26.711Z,1.92
2019-04-26T01:12:55.319Z,1.67
2019-04-26T01:15:26.630Z,1.57
2019-04-26T01:17:55.451Z,1.52
2019-04-26T01:20:26.779Z,2.13
2019-04-26T01:22:58.949Z,1.62
2019-04-26T01:25:45.871Z,1.50
2019-04-26T01:28:18.519Z,1.45
2019-04-26T01:30:48.371Z,1.27
2019-04-26T01:33:17.827Z,0.90
2019-04-26T01:35:48.014Z,1.55
2019-04-26T01:38:17.021Z,1.37
2019-04-26T01:40:47.417Z,1.60
2019-04-26T01:43:24.358Z,1.20
2019-04-26T01:46:00.358Z,0.97
2019-04-26T01:48:44.048Z,1.37
2019-04-26T01:51:15.724Z,1.30
2019-04-26T01:53:47.945Z,1.30
2019-04-26T01:56:18.930Z,1.23
2019-04-26T01:58:48.469Z,1.00
2019-04-26T02:01:18.765Z,1.53
2019-04-26T02:03:47.491Z,1.47
2019-04-26T02:06:25.344Z,1.20
2019-04-26T02:08:46.697Z,1.53
2019-04-26T02:11:15.393Z,1.47
2019-04-26T02:13:44.821Z,1.17
2019-04-26T02:16:13.455Z,1.23
2019-04-26T02:18:42.785Z,1.20
2019-04-26T02:21:16.354Z,1.30
2019-04-26T02:23:58.999Z,1.27
2019-04-26T02:26:37.773Z,1.07
2019-04-26T02:29:12.069Z,1.30
2019-04-26T02:31:43.084Z,1.00
2019-04-26T02:34:13.474Z,1.00
2019-04-26T02:36:56.927Z,1.13
2019-04-26T02:39:22.428Z,1.40
2019-04-26T02:41:54.093Z,1.10
2019-04-26T02:44:28.981Z,1.30
2019-04-26T02:47:24.811Z,1.47
2019-04-26T02:49:57.252Z,1.53
2019-04-26T02:52:49.363Z,1.80
2019-04-26T02:55:49.953Z,1.50
2019-04-26T02:58:22.277Z,1.87
2019-04-26T03:00:52.272Z,1.50
2019-04-26T03:03:23.517Z,1.73
2019-04-26T03:05:54.334Z,1.47
2019-04-26T03:08:26.365Z,1.70
2019-04-26T03:10:57.999Z,1.80
2019-04-26T03:13:32.742Z,1.80
2019-04-26T03:16:18.293Z,2.07
2019-04-26T03:19:03.298Z,2.10
2019-04-26T03:21:47.207Z,1.77
2019-04-26T03:24:21.552Z,2.33
2019-04-26T03:27:14.341Z,1.90
2019-04-26T03:30:19.906Z,2.40
2019-04-26T03:33:09.617Z,1.93
2019-04-26T03:36:00.698Z,1.70
2019-04-26T03:39:04.268Z,1.90
2019-04-26T03:42:03.466Z,2.00
2019-04-26T03:44:38.851Z,2.20
2019-04-26T03:47:10.831Z,2.30
2019-04-26T03:50:02.208Z,2.50
2019-04-26T03:52:52.062Z,3.00
2019-04-26T03:55:28.138Z,3.00
2019-04-26T03:58:23.826Z,2.80
2019-04-26T04:00:55.855Z,2.50
2019-04-26T04:03:41.672Z,2.53
2019-04-26T04:06:12.612Z,2.97
2019-04-26T04:08:48.217Z,2.57
2019-04-26T04:11:26.739Z,2.60
2019-04-26T04:14:01.420Z,2.97
2019-04-26T04:16:59.352Z,3.10
2019-04-26T04:19:58.144Z,3.00
2019-04-26T04:22:40.856Z,2.93
2019-04-26T04:25:14.860Z,4.00
2019-04-26T04:28:03.439Z,3.87
2019-04-26T04:30:42.247Z,3.33
2019-04-26T04:33:32.779Z,3.23
2019-04-26T04:36:04.966Z,4.30
2019-04-26T04:38:44.050Z,4.20
2019-04-26T04:41:26.424Z,4.80
2019-04-26T04:44:07.883Z,4.57
2019-04-26T04:46:52.466Z,4.03
2019-04-26T04:49:48.944Z,4.60
2019-04-26T04:52:21.290Z,4.37
2019-04-26T04:55:06.652Z,4.50
2019-04-26T04:57:50.366Z,4.40
2019-04-26T05:00:41.382Z,4.00
2019-04-26T05:03:26.625Z,4.53
2019-04-26T05:06:38.798Z,6.00
2019-04-26T05:09:13.190Z,6.33
2019-04-26T05:11:51.889Z,7.03
2019-04-26T05:14:43.687Z,6.40
2019-04-26T05:17:41.796Z,6.27
2019-04-26T05:20:37.287Z,7.03
2019-04-26T05:23:42.229Z,7.23
2019-04-26T05:26:51.619Z,7.77
2019-04-26T05:29:33.901Z,7.37
2019-04-26T05:32:22.294Z,6.13
2019-04-26T05:35:10.857Z,6.23
2019-04-26T05:37:49.237Z,6.20
2019-04-26T05:40:39.982Z,6.33
2019-04-26T05:43:19.030Z,5.20
2019-04-26T05:46:23.222Z,4.90
2019-04-26T05:49:29.875Z,4.37
2019-04-26T05:52:22.556Z,4.58
2019-04-26T05:55:34.279Z,4.60
2019-04-26T05:58:12.249Z,4.62
2019-04-26T06:01:02.733Z,4.30
2019-04-26T06:03:54.342Z,4.75
2019-04-26T06:06:33.685Z,5.05
2019-04-26T06:09:26.690Z,6.12
2019-04-26T06:12:24.001Z,7.47
2019-04-26T06:15:21.927Z,7.63
2019-04-26T06:18:10.461Z,7.75
2019-04-26T06:20:45.711Z,7.92
2019-04-26T06:23:26.522Z,8.60
2019-04-26T06:26:37.930Z,8.60
2019-04-26T06:29:09.577Z,7.78
2019-04-26T06:31:46.997Z,8.13
2019-04-26T06:34:18.740Z,8.67
2019-04-26T06:37:10.315Z,8.60
2019-04-26T06:39:47.717Z,8.28
2019-04-26T06:42:28.829Z,7.92
2019-04-26T06:45:26.767Z,8.83
2019-04-26T06:48:00.092Z,8.97
2019-04-26T06:50:42.239Z,9.47
2019-04-26T06:53:16.627Z,10.13
2019-04-26T06:55:49.903Z,9.83
2019-04-26T06:58:46.176Z,11.12
2019-04-26T07:01:33.190Z,11.63
2019-04-26T07:04:26.422Z,12.73
2019-04-26T07:07:20.397Z,13.73
2019-04-26T07:10:04.298Z,14.20
2019-04-26T07:12:40.459Z,14.47
2019-04-26T07:15:47.079Z,14.63
2019-04-26T07:18:36.828Z,14.83
2019-04-26T07:21:19.268Z,14.23
2019-04-26T07:24:17.577Z,14.18
2019-04-26T07:27:09.015Z,14.80
2019-04-26T07:30:01.904Z,14.27
2019-04-26T07:33:04.182Z,14.75
2019-04-26T07:35:41.390Z,13.63
2019-04-26T07:38:55.727Z,14.53
2019-04-26T07:41:57.737Z,13.37
2019-04-26T07:44:48.986Z,14.97
2019-04-26T07:47:39.840Z,15.93
2019-04-26T07:50:44.414Z,15.57
2019-04-26T07:53:37.076Z,15.30
2019-04-26T07:56:09.323Z,16.17
2019-04-26T07:59:16.552Z,16.02
2019-04-26T08:02:21.654Z,15.75
2019-04-26T08:05:09.501Z,15.30
2019-04-26T08:07:50.718Z,15.67
2019-04-26T08:10:25.542Z,13.73
2019-04-26T08:13:04.459Z,14.50
2019-04-26T08:15:42.972Z,15.70
2019-04-26T08:18:31.051Z,15.20
2019-04-26T08:21:10.038Z,14.25
2019-04-26T08:23:42.288Z,14.57
2019-04-26T08:26:15.510Z,14.68
2019-04-26T08:28:46.746Z,14.85
2019-04-26T08:31:21.592Z,14.10
2019-04-26T08:33:53.600Z,14.97
2019-04-26T08:36:28.725Z,14.53
2019-04-26T08:39:05.946Z,14.80
2019-04-26T08:41:39.084Z,15.25
2019-04-26T08:47:01.186Z,15.67
2019-04-26T08:49:39.155Z,14.53
2019-04-26T08:52:14.207Z,15.77
2019-04-26T08:54:43.621Z,15.72
2019-04-26T08:57:14.651Z,15.60
2019-04-26T08:59:49.168Z,15.08
2019-04-26T09:02:41.468Z,14.77
2019-04-26T09:05:25.425Z,15.03
2019-04-26T09:07:58.912Z,13.68
2019-04-26T09:10:30.605Z,12.17
2019-04-26T09:13:04.223Z,13.18
2019-04-26T09:16:01.749Z,11.90
2019-04-26T09:18:42.390Z,12.33
2019-04-26T09:21:01.224Z,13.47
2019-04-26T09:23:53.569Z,13.25
2019-04-26T09:29:34.069Z,12.93
2019-04-26T09:32:13.169Z,13.93
2019-04-26T09:34:45.776Z,13.45
2019-04-26T09:37:19.239Z,13.50
2019-04-26T09:39:48.307Z,13.18
2019-04-26T09:42:42.185Z,14.15
2019-04-26T09:45:25.459Z,14.60
2019-04-26T09:48:00.025Z,13.53
2019-04-26T09:50:41.709Z,13.62
2019-04-26T09:53:13.897Z,12.90
2019-04-26T09:55:45.272Z,14.07
2019-04-26T09:58:14.774Z,14.18
2019-04-26T10:00:48.474Z,14.03
2019-04-26T10:03:26.579Z,14.80
2019-04-26T10:05:57.089Z,15.27
2019-04-26T10:08:28.126Z,13.83
2019-04-26T10:11:05.797Z,15.57
2019-04-26T10:13:38.336Z,16.93
2019-04-26T10:16:13.783Z,17.50
2019-04-26T10:18:44.227Z,16.90
2019-04-26T10:21:23.961Z,16.97
2019-04-26T10:23:52.677Z,18.20
2019-04-26T10:26:32.144Z,17.77
2019-04-26T10:29:00.891Z,18.10
2019-04-26T10:31:29.747Z,19.07
2019-04-26T10:33:59.101Z,19.20
2019-04-26T10:36:30.110Z,19.30
2019-04-26T10:38:59.815Z,20.17
2019-04-26T10:41:31.886Z,19.98
2019-04-26T10:44:01.436Z,21.10
2019-04-26T10:46:31.639Z,20.68
2019-04-26T10:49:08.975Z,19.98
2019-04-26T10:51:38.577Z,19.87
2019-04-26T10:54:13.365Z,19.25
2019-04-26T10:56:46.887Z,20.23
2019-04-26T10:59:22.656Z,18.70
2019-04-26T11:01:57.613Z,17.83
2019-04-26T11:04:28.749Z,17.47
2019-04-26T11:07:02.027Z,18.67
2019-04-26T11:09:42.746Z,17.33
2019-04-26T11:12:18.843Z,18.57
2019-04-26T11:14:53.302Z,18.40
2019-04-26T11:17:23.456Z,17.40
2019-04-26T11:19:52.619Z,17.70
2019-04-26T11:22:29.098Z,16.93
2019-04-26T11:24:53.742Z,17.03
2019-04-26T11:27:27.710Z,18.37
2019-04-26T11:30:00.076Z,16.85
2019-04-26T11:32:28.425Z,16.20
2019-04-26T11:34:58.760Z,15.27
2019-04-26T11:37:30.857Z,15.13
2019-04-26T11:39:59.608Z,13.40
2019-04-26T11:42:28.493Z,11.93
2019-04-26T11:45:06.078Z,11.23
2019-04-26T11:47:29.359Z,12.23
2019-04-26T11:49:59.915Z,12.37
2019-04-26T11:52:35.912Z,13.13
2019-04-26T11:55:19.546Z,12.68
2019-04-26T11:57:50.541Z,12.63
2019-04-26T12:00:22.671Z,11.97
2019-04-26T12:02:54.024Z,12.20
2019-04-26T12:05:24.558Z,12.83
2019-04-26T12:08:00.836Z,12.63
2019-04-26T12:10:33.745Z,12.85
2019-04-26T12:13:10.414Z,12.33
2019-04-26T12:15:43.678Z,10.95
2019-04-26T12:18:16.561Z,11.63
2019-04-26T12:20:45.266Z,11.43
2019-04-26T12:23:20.376Z,10.78
2019-04-26T12:25:48.291Z,11.73
2019-04-26T12:28:17.199Z,10.80
2019-04-26T12:30:45.958Z,10.68
2019-04-26T12:33:15.721Z,7.70
2019-04-26T12:35:44.457Z,7.08
2019-04-26T12:38:18.792Z,6.87
2019-04-26T12:40:51.632Z,6.67
2019-04-26T12:43:24.539Z,7.37
2019-04-26T12:45:59.666Z,7.20
2019-04-26T12:48:34.223Z,6.53
2019-04-26T12:51:04.443Z,6.00
2019-04-26T12:53:33.716Z,5.23
2019-04-26T12:56:04.810Z,5.53
2019-04-26T12:58:33.733Z,6.20
2019-04-26T13:01:02.590Z,7.00
2019-04-26T13:03:31.342Z,6.87
2019-04-26T13:06:01.803Z,6.87
2019-04-26T13:08:33.012Z,7.20
2019-04-26T13:11:15.108Z,7.20
2019-04-26T13:13:58.098Z,7.17
2019-04-26T13:16:34.160Z,7.10
2019-04-26T13:19:08.557Z,6.27
2019-04-26T13:21:44.543Z,6.10
2019-04-26T13:24:13.969Z,5.83
2019-04-26T13:26:42.988Z,6.13
2019-04-26T13:29:17.531Z,6.60
2019-04-26T13:31:48.014Z,6.67
2019-04-26T13:34:21.185Z,7.07
2019-04-26T13:36:52.645Z,7.27
2019-04-26T13:39:29.951Z,7.20
2019-04-26T13:42:04.601Z,6.57
2019-04-26T13:44:48.986Z,8.00
2019-04-26T13:47:21.204Z,7.50
2019-04-26T13:49:52.316Z,7.67
2019-04-26T13:52:25.061Z,8.17
2019-04-26T13:55:02.191Z,8.13
2019-04-26T13:57:31.254Z,8.77
2019-04-26T14:00:02.530Z,9.37
2019-04-26T14:02:30.349Z,9.80
2019-04-26T14:04:59.646Z,12.60
2019-04-26T14:07:30.645Z,12.90
2019-04-26T14:10:02.191Z,15.90
2019-04-26T14:12:32.471Z,16.57
2019-04-26T14:15:08.407Z,15.10
2019-04-26T14:17:45.445Z,12.57
2019-04-26T14:20:19.190Z,15.70
2019-04-26T14:23:11.351Z,18.33
2019-04-26T14:25:55.503Z,13.00
2019-04-26T14:28:26.855Z,12.20
2019-04-26T14:30:58.548Z,11.83
2019-04-26T14:33:30.716Z,14.80
2019-04-26T14:36:17.429Z,16.37
2019-04-26T14:38:44.274Z,14.93
2019-04-26T14:41:13.948Z,15.47
2019-04-26T14:43:45.071Z,15.73
2019-04-26T14:46:28.259Z,18.47
2019-04-26T14:49:01.435Z,19.10
2019-04-26T14:51:26.937Z,14.37
2019-04-26T14:53:58.650Z,13.47
2019-04-26T14:56:29.307Z,13.23
2019-04-26T14:59:01.815Z,12.27
2019-04-26T15:01:35.789Z,13.30
2019-04-26T15:04:23.233Z,12.50
2019-04-26T15:06:58.175Z,11.80
2019-04-26T15:09:32.725Z,12.97
2019-04-26T15:12:01.079Z,12.20
2019-04-26T15:14:28.806Z,13.00
2019-04-26T15:17:00.364Z,11.00
2019-04-26T15:19:35.400Z,12.33
2019-04-26T15:22:10.147Z,13.90
2019-04-26T15:24:38.627Z,13.60
2019-04-26T15:27:06.138Z,12.73
2019-04-26T15:29:36.688Z,13.20
2019-04-26T15:32:08.329Z,15.60
2019-04-26T15:34:41.353Z,13.77
2019-04-26T15:37:10.237Z,14.83
2019-04-26T15:39:44.470Z,14.80
2019-04-26T15:42:25.228Z,14.47
2019-04-26T15:45:08.082Z,14.67
2019-04-26T15:48:02.277Z,12.93
2019-04-26T15:50:40.886Z,11.93
2019-04-26T15:53:12.759Z,11.30
2019-04-26T15:56:03.742Z,10.77
2019-04-26T15:58:33.944Z,11.33
2019-04-26T16:01:06.709Z,11.07
2019-04-26T16:03:36.875Z,10.27
2019-04-26T16:06:08.200Z,9.63
2019-04-26T16:08:42.542Z,8.83
2019-04-26T16:11:18.866Z,8.63
2019-04-26T16:13:56.298Z,8.80
2019-04-26T16:16:34.163Z,8.53
2019-04-26T16:19:02.989Z,8.90
2019-04-26T16:21:36.284Z,7.87
2019-04-26T16:24:08.186Z,8.20
2019-04-26T16:26:37.242Z,7.80
2019-04-26T16:29:09.125Z,7.70
2019-04-26T16:31:42.139Z,8.47
2019-04-26T16:34:14.867Z,8.33
2019-04-26T16:36:45.248Z,7.50
2019-04-26T16:39:16.164Z,8.97
2019-04-26T16:41:46.348Z,8.27
2019-04-26T16:44:19.320Z,8.63
2019-04-26T16:46:47.226Z,10.00
2019-04-26T16:49:15.625Z,9.90
2019-04-26T16:51:44.421Z,10.20
2019-04-26T16:54:20.978Z,10.67
2019-04-26T16:56:45.240Z,10.60
2019-04-26T16:59:22.560Z,10.23
2019-04-26T17:01:47.423Z,11.13
2019-04-26T17:04:20.060Z,10.80
2019-04-26T17:06:46.951Z,11.27
2019-04-26T17:09:17.147Z,11.80
2019-04-26T17:11:49.627Z,12.40
2019-04-26T17:14:18.381Z,13.83
2019-04-26T17:16:57.343Z,13.73
2019-04-26T17:19:29.644Z,14.97
2019-04-26T17:22:02.112Z,16.13
2019-04-26T17:24:53.547Z,15.33
2019-04-26T17:27:29.253Z,15.83
2019-04-26T17:29:58.335Z,15.20
2019-04-26T17:32:31.408Z,16.60
2019-04-26T17:35:07.353Z,17.73
2019-04-26T17:37:35.384Z,17.33
2019-04-26T17:40:07.130Z,17.00
2019-04-26T17:42:55.902Z,16.63
2019-04-26T17:45:27.316Z,16.97
2019-04-26T17:48:01.856Z,16.90
2019-04-26T17:50:30.972Z,17.37
2019-04-26T17:53:10.749Z,17.73
2019-04-26T17:55:50.284Z,17.33
2019-04-26T17:58:27.599Z,17.17
2019-04-26T18:00:52.115Z,17.10
2019-04-26T18:03:25.255Z,18.03
2019-04-26T18:06:13.925Z,16.77
2019-04-26T18:08:51.863Z,17.07
2019-04-26T18:11:22.435Z,18.20
2019-04-26T18:13:52.212Z,17.97
2019-04-26T18:16:29.259Z,18.33
2019-04-26T18:19:15.715Z,17.80
2019-04-26T18:21:59.773Z,17.57
2019-04-26T18:24:40.383Z,17.00
2019-04-26T18:27:03.821Z,16.73
2019-04-26T18:29:33.669Z,17.17
2019-04-26T18:32:04.968Z,16.73
2019-04-26T18:34:40.523Z,17.50
2019-04-26T18:37:15.096Z,16.07
2019-04-26T18:39:48.063Z,17.97
2019-04-26T18:42:20.259Z,17.93
2019-04-26T18:44:51.055Z,17.37
2019-04-26T18:47:28.577Z,17.97
2019-04-26T18:50:01.308Z,16.87
2019-04-26T18:52:33.054Z,16.73
2019-04-26T18:55:06.576Z,16.57
2019-04-26T18:57:47.349Z,17.63
2019-04-26T19:00:21.585Z,16.73
2019-04-26T19:02:56.750Z,17.10
2019-04-26T19:05:30.450Z,17.33
2019-04-26T19:08:00.653Z,15.97
2019-04-26T19:10:58.071Z,16.90
2019-04-26T19:13:37.596Z,17.10
2019-04-26T19:16:21.787Z,16.43
2019-04-26T19:18:52.232Z,16.03
2019-04-26T19:21:40.539Z,16.97
2019-04-26T19:24:19.482Z,16.30
2019-04-26T19:27:01.745Z,16.73
2019-04-26T19:29:35.909Z,18.03
2019-04-26T19:32:06.410Z,18.37
2019-04-26T19:34:43.835Z,17.80
2019-04-26T19:37:17.275Z,15.93
2019-04-26T19:39:47.516Z,16.80
2019-04-26T19:42:16.359Z,17.73
2019-04-26T19:45:09.440Z,16.90
2019-04-26T19:47:25.038Z,17.83
2019-04-26T19:50:03.230Z,17.93
2019-04-26T19:52:46.827Z,19.30
2019-04-26T19:55:28.956Z,19.73
2019-04-26T19:58:09.697Z,19.30
2019-04-26T20:00:43.396Z,19.33
2019-04-26T20:03:18.605Z,20.93
2019-04-26T20:06:00.267Z,21.57
2019-04-26T20:08:35.488Z,19.57
2019-04-26T20:11:06.837Z,19.23
2019-04-26T20:13:42.630Z,21.43
2019-04-26T20:16:14.179Z,20.07
2019-04-26T20:18:52.353Z,20.57
2019-04-26T20:21:22.828Z,20.60
2019-04-26T20:23:54.479Z,21.50
2019-04-26T20:26:22.684Z,20.87
2019-04-26T20:28:54.277Z,20.57
2019-04-26T20:31:27.843Z,20.63
2019-04-26T20:33:58.484Z,21.43
2019-04-26T20:36:28.583Z,22.47
2019-04-26T20:39:12.451Z,22.20
2019-04-26T20:41:46.793Z,22.37
2019-04-26T20:44:28.880Z,21.50
2019-04-26T20:46:52.873Z,20.80
2019-04-26T20:49:22.453Z,21.60
2019-04-26T20:51:51.907Z,22.87
2019-04-26T20:54:29.495Z,22.27
2019-04-26T20:57:01.789Z,21.70
2019-04-26T20:59:30.876Z,22.03
2019-04-26T21:02:05.458Z,21.83
2019-04-26T21:04:38.282Z,22.20
2019-04-26T21:07:06.683Z,24.10
2019-04-26T21:09:40.822Z,22.17
2019-04-26T21:12:07.902Z,23.07
2019-04-26T21:14:45.538Z,22.43
2019-04-26T21:17:24.243Z,22.13
2019-04-26T21:19:58.426Z,21.97
2019-04-26T21:22:31.613Z,20.73
2019-04-26T21:28:24.933Z,21.10
2019-04-26T21:31:07.608Z,20.53
2019-04-26T21:33:55.310Z,21.27
2019-04-26T21:36:27.290Z,21.67
2019-04-26T21:39:07.513Z,21.47
2019-04-26T21:41:45.129Z,21.63
2019-04-26T21:44:15.831Z,22.07
2019-04-26T21:46:49.649Z,22.37
2019-04-26T21:49:20.200Z,22.03
2019-04-26T21:51:54.220Z,21.40
2019-04-26T21:54:19.467Z,21.73
2019-04-26T21:56:49.966Z,22.37
2019-04-26T21:59:18.676Z,22.43
2019-04-26T22:01:58.797Z,22.03
2019-04-26T22:04:34.184Z,21.67
2019-04-26T22:07:05.007Z,20.80
2019-04-26T22:09:55.459Z,22.23
2019-04-26T22:12:27.392Z,22.20
2019-04-26T22:15:03.495Z,21.83
2019-04-26T22:17:34.788Z,22.70
2019-04-26T22:20:12.904Z,22.57
2019-04-26T22:22:44.304Z,23.07
2019-04-26T22:25:22.731Z,21.60
2019-04-26T22:28:00.095Z,21.90
2019-04-26T22:30:44.088Z,22.30
2019-04-26T22:33:13.114Z,21.27
2019-04-26T22:35:43.221Z,22.90
2019-04-26T22:38:17.555Z,22.53
2019-04-26T22:40:48.558Z,22.70
2019-04-26T22:43:26.384Z,23.57
2019-04-26T22:46:05.005Z,22.77
2019-04-26T22:48:36.292Z,22.53
2019-04-26T22:51:06.647Z,21.70
2019-04-26T22:53:35.419Z,22.90
2019-04-26T22:56:05.573Z,23.20
2019-04-26T22:58:34.286Z,23.43
2019-04-26T23:01:06.207Z,23.40
2019-04-26T23:03:41.091Z,23.03
2019-04-26T23:06:33.729Z,22.90
2019-04-26T23:09:11.526Z,22.33
2019-04-26T23:11:54.831Z,22.57
2019-04-26T23:14:59.435Z,23.43
2019-04-26T23:17:37.150Z,24.83
2019-04-26T23:20:29.116Z,24.07
2019-04-26T23:22:55.768Z,22.73
2019-04-26T23:25:27.790Z,24.60
2019-04-26T23:27:58.167Z,24.00
2019-04-26T23:30:27.749Z,23.60
2019-04-26T23:32:58.289Z,23.23
2019-04-26T23:35:43.252Z,23.97
2019-04-26T23:38:21.347Z,25.03
2019-04-26T23:41:01.089Z,22.80
2019-04-26T23:43:30.929Z,25.80
2019-04-26T23:45:59.589Z,24.77
2019-04-26T23:48:28.264Z,25.37
2019-04-26T23:50:59.961Z,24.23
2019-04-26T23:53:28.170Z,24.47
2019-04-26T23:55:56.849Z,24.47
2019-04-26T23:58:25.471Z,23.43
